sensor_id;sensor_type;location;lat;lon;timestamp;temperature;humidity
13850;DHT22;6995;52.618;13.488;2024-01-11T00:01:47;-5.90;1.00
13850;DHT22;6995;52.618;13.488;2024-01-11T00:04:14;-6.00;1.00
13850;DHT22;6995;52.618;13.488;2024-01-11T00:06:43;-6.00;1.00
13850;DHT22;6995;52.618;13.488;2024-01-11T00:09:09;-6.10;1.00
13850;DHT22;6995;52.618;13.488;2024-01-11T00:11:35;-6.10;1.00
13850;DHT22;6995;52.618;13.488;2024-01-11T00:14:00;-6.00;1.00
13850;DHT22;6995;52.618;13.488;2024-01-11T00:16:26;-6.00;1.00
13850;DHT22;6995;52.618;13.488;2024-01-11T00:18:52;-6.00;1.00
13850;DHT22;6995;52.618;13.488;2024-01-11T00:21:17;-5.90;1.00
13850;DHT22;6995;52.618;13.488;2024-01-11T00:23:43;-5.90;1.00
13850;DHT22;6995;52.618;13.488;2024-01-11T00:26:11;-6.00;1.00
13850;DHT22;6995;52.618;13.488;2024-01-11T00:28:37;-6.00;1.00
13850;DHT22;6995;52.618;13.488;2024-01-11T00:31:03;-6.00;1.00
13850;DHT22;6995;52.618;13.488;2024-01-11T00:33:28;-5.90;1.00
13850;DHT22;6995;52.618;13.488;2024-01-11T00:35:54;-5.90;1.00
13850;DHT22;6995;52.618;13.488;2024-01-11T00:38:20;-6.00;1.00
13850;DHT22;6995;52.618;13.488;2024-01-11T00:40:45;-6.00;1.00
13850;DHT22;6995;52.618;13.488;2024-01-11T00:43:11;-6.00;1.00
13850;DHT22;6995;52.618;13.488;2024-01-11T00:45:37;-6.00;1.00
13850;DHT22;6995;52.618;13.488;2024-01-11T00:48:03;-6.00;1.00
13850;DHT22;6995;52.618;13.488;2024-01-11T00:50:28;-6.00;1.00
13850;DHT22;6995;52.618;13.488;2024-01-11T00:52:54;-6.00;9.20
13850;DHT22;6995;52.618;13.488;2024-01-11T00:55:20;-6.00;36.60
13850;DHT22;6995;52.618;13.488;2024-01-11T00:57:45;-5.90;65.60
13850;DHT22;6995;52.618;13.488;2024-01-11T01:00:11;-5.90;80.40
13850;DHT22;6995;52.618;13.488;2024-01-11T01:02:40;-5.80;95.40
13850;DHT22;6995;52.618;13.488;2024-01-11T01:05:06;-5.90;80.40
13850;DHT22;6995;52.618;13.488;2024-01-11T01:07:32;-5.80;99.90
13850;DHT22;6995;52.618;13.488;2024-01-11T01:09:57;-5.90;99.90
13850;DHT22;6995;52.618;13.488;2024-01-11T01:12:23;-5.80;99.90
13850;DHT22;6995;52.618;13.488;2024-01-11T01:14:51;-5.80;99.90
13850;DHT22;6995;52.618;13.488;2024-01-11T01:17:16;-5.70;99.90
13850;DHT22;6995;52.618;13.488;2024-01-11T01:19:43;-5.70;99.90
13850;DHT22;6995;52.618;13.488;2024-01-11T01:22:08;-5.70;99.90
13850;DHT22;6995;52.618;13.488;2024-01-11T01:24:34;-5.60;99.90
13850;DHT22;6995;52.618;13.488;2024-01-11T01:26:59;-5.70;99.90
13850;DHT22;6995;52.618;13.488;2024-01-11T01:29:26;-5.60;99.90
13850;DHT22;6995;52.618;13.488;2024-01-11T01:31:51;-5.60;99.90
13850;DHT22;6995;52.618;13.488;2024-01-11T01:34:17;-5.50;99.90
13850;DHT22;6995;52.618;13.488;2024-01-11T01:36:43;-5.50;99.90
13850;DHT22;6995;52.618;13.488;2024-01-11T01:39:09;-5.50;99.90
13850;DHT22;6995;52.618;13.488;2024-01-11T01:41:34;-5.50;99.90
13850;DHT22;6995;52.618;13.488;2024-01-11T01:44:02;-5.50;99.90
13850;DHT22;6995;52.618;13.488;2024-01-11T01:46:27;-5.50;99.90
13850;DHT22;6995;52.618;13.488;2024-01-11T01:48:54;-5.60;99.90
13850;DHT22;6995;52.618;13.488;2024-01-11T01:51:22;-5.50;99.90
13850;DHT22;6995;52.618;13.488;2024-01-11T01:53:49;-5.50;99.90
13850;DHT22;6995;52.618;13.488;2024-01-11T01:56:16;-5.30;99.90
13850;DHT22;6995;52.618;13.488;2024-01-11T01:58:42;-5.30;99.90
13850;DHT22;6995;52.618;13.488;2024-01-11T02:01:08;-5.30;99.90
13850;DHT22;6995;52.618;13.488;2024-01-11T02:03:35;-5.20;99.90
13850;DHT22;6995;52.618;13.488;2024-01-11T02:06:03;-5.10;99.90
13850;DHT22;6995;52.618;13.488;2024-01-11T02:08:30;-5.10;99.90
13850;DHT22;6995;52.618;13.488;2024-01-11T02:10:58;-5.00;99.90
13850;DHT22;6995;52.618;13.488;2024-01-11T02:13:25;-5.00;99.90
13850;DHT22;6995;52.618;13.488;2024-01-11T02:15:50;-5.00;99.90
13850;DHT22;6995;52.618;13.488;2024-01-11T02:18:17;-5.00;99.90
13850;DHT22;6995;52.618;13.488;2024-01-11T02:20:42;-4.90;99.90
13850;DHT22;6995;52.618;13.488;2024-01-11T02:23:16;-4.90;99.90
13850;DHT22;6995;52.618;13.488;2024-01-11T02:25:42;-4.80;99.90
13850;DHT22;6995;52.618;13.488;2024-01-11T02:28:08;-4.80;1.00
13850;DHT22;6995;52.618;13.488;2024-01-11T02:30:34;-4.70;1.00
13850;DHT22;6995;52.618;13.488;2024-01-11T02:33:01;-4.70;1.00
13850;DHT22;6995;52.618;13.488;2024-01-11T02:35:27;-4.60;1.00
13850;DHT22;6995;52.618;13.488;2024-01-11T02:37:54;-4.60;1.00
13850;DHT22;6995;52.618;13.488;2024-01-11T02:40:20;-4.70;1.00
13850;DHT22;6995;52.618;13.488;2024-01-11T02:42:45;-4.60;1.00
13850;DHT22;6995;52.618;13.488;2024-01-11T02:45:12;-4.60;1.00
13850;DHT22;6995;52.618;13.488;2024-01-11T02:47:38;-4.50;1.00
13850;DHT22;6995;52.618;13.488;2024-01-11T02:50:05;-4.50;1.00
13850;DHT22;6995;52.618;13.488;2024-01-11T02:52:30;-4.60;1.00
13850;DHT22;6995;52.618;13.488;2024-01-11T02:54:57;-4.60;1.00
13850;DHT22;6995;52.618;13.488;2024-01-11T02:57:23;-4.60;1.00
13850;DHT22;6995;52.618;13.488;2024-01-11T02:59:49;-4.60;1.00
13850;DHT22;6995;52.618;13.488;2024-01-11T03:02:15;-4.50;1.00
13850;DHT22;6995;52.618;13.488;2024-01-11T03:04:41;-4.50;1.00
13850;DHT22;6995;52.618;13.488;2024-01-11T03:07:06;-4.50;1.00
13850;DHT22;6995;52.618;13.488;2024-01-11T03:09:32;-4.50;1.00
13850;DHT22;6995;52.618;13.488;2024-01-11T03:11:59;-4.40;1.00
13850;DHT22;6995;52.618;13.488;2024-01-11T03:14:25;-4.40;1.00
13850;DHT22;6995;52.618;13.488;2024-01-11T03:16:50;-4.40;1.00
13850;DHT22;6995;52.618;13.488;2024-01-11T03:19:16;-4.40;1.00
13850;DHT22;6995;52.618;13.488;2024-01-11T03:21:45;-4.40;1.00
13850;DHT22;6995;52.618;13.488;2024-01-11T03:24:12;-4.50;1.00
13850;DHT22;6995;52.618;13.488;2024-01-11T03:26:38;-4.40;1.00
13850;DHT22;6995;52.618;13.488;2024-01-11T03:29:03;-4.40;1.00
13850;DHT22;6995;52.618;13.488;2024-01-11T03:31:29;-4.40;1.00
13850;DHT22;6995;52.618;13.488;2024-01-11T03:33:54;-4.40;1.00
13850;DHT22;6995;52.618;13.488;2024-01-11T03:36:23;-4.30;1.00
13850;DHT22;6995;52.618;13.488;2024-01-11T03:38:49;-4.30;1.00
13850;DHT22;6995;52.618;13.488;2024-01-11T03:41:14;-4.30;1.00
13850;DHT22;6995;52.618;13.488;2024-01-11T03:43:40;-4.30;1.00
13850;DHT22;6995;52.618;13.488;2024-01-11T03:46:05;-4.20;1.00
13850;DHT22;6995;52.618;13.488;2024-01-11T03:48:31;-4.30;1.00
13850;DHT22;6995;52.618;13.488;2024-01-11T03:50:57;-4.30;1.00
13850;DHT22;6995;52.618;13.488;2024-01-11T03:53:23;-4.20;1.00
13850;DHT22;6995;52.618;13.488;2024-01-11T03:55:48;-4.20;1.00
13850;DHT22;6995;52.618;13.488;2024-01-11T03:58:14;-4.20;1.00
13850;DHT22;6995;52.618;13.488;2024-01-11T04:00:40;-4.20;1.00
13850;DHT22;6995;52.618;13.488;2024-01-11T04:03:08;-4.20;1.00
13850;DHT22;6995;52.618;13.488;2024-01-11T04:05:34;-4.20;1.00
13850;DHT22;6995;52.618;13.488;2024-01-11T04:08:02;-4.10;1.00
13850;DHT22;6995;52.618;13.488;2024-01-11T04:10:28;-4.10;1.00
13850;DHT22;6995;52.618;13.488;2024-01-11T04:12:54;-4.10;1.00
13850;DHT22;6995;52.618;13.488;2024-01-11T04:15:19;-4.20;1.00
13850;DHT22;6995;52.618;13.488;2024-01-11T04:17:45;-4.10;1.00
13850;DHT22;6995;52.618;13.488;2024-01-11T04:20:11;-4.10;1.00
13850;DHT22;6995;52.618;13.488;2024-01-11T04:22:36;-4.20;1.00
13850;DHT22;6995;52.618;13.488;2024-01-11T04:25:02;-4.10;1.00
13850;DHT22;6995;52.618;13.488;2024-01-11T04:27:28;-4.10;1.00
13850;DHT22;6995;52.618;13.488;2024-01-11T04:29:53;-4.00;1.00
13850;DHT22;6995;52.618;13.488;2024-01-11T04:32:19;-4.00;1.00
13850;DHT22;6995;52.618;13.488;2024-01-11T04:34:47;-4.00;1.00
13850;DHT22;6995;52.618;13.488;2024-01-11T04:37:13;-4.00;1.00
13850;DHT22;6995;52.618;13.488;2024-01-11T04:39:38;-3.80;1.00
13850;DHT22;6995;52.618;13.488;2024-01-11T04:42:04;-3.80;1.00
13850;DHT22;6995;52.618;13.488;2024-01-11T04:44:30;-3.80;1.00
13850;DHT22;6995;52.618;13.488;2024-01-11T04:46:55;-3.80;99.90
13850;DHT22;6995;52.618;13.488;2024-01-11T04:49:21;-3.70;99.90
13850;DHT22;6995;52.618;13.488;2024-01-11T04:51:46;-3.70;99.90
13850;DHT22;6995;52.618;13.488;2024-01-11T04:54:12;-3.80;99.90
13850;DHT22;6995;52.618;13.488;2024-01-11T04:56:38;-3.70;99.90
13850;DHT22;6995;52.618;13.488;2024-01-11T04:59:03;-3.70;99.90
13850;DHT22;6995;52.618;13.488;2024-01-11T05:01:29;-3.80;99.90
13850;DHT22;6995;52.618;13.488;2024-01-11T05:03:54;-3.70;99.90
13850;DHT22;6995;52.618;13.488;2024-01-11T05:06:22;-3.70;99.90
13850;DHT22;6995;52.618;13.488;2024-01-11T05:08:49;-3.70;99.90
13850;DHT22;6995;52.618;13.488;2024-01-11T05:11:21;-3.70;99.90
13850;DHT22;6995;52.618;13.488;2024-01-11T05:13:48;-3.80;99.90
13850;DHT22;6995;52.618;13.488;2024-01-11T05:16:24;-3.70;99.90
13850;DHT22;6995;52.618;13.488;2024-01-11T05:18:52;-3.70;99.90
13850;DHT22;6995;52.618;13.488;2024-01-11T05:21:18;-3.70;99.90
13850;DHT22;6995;52.618;13.488;2024-01-11T05:23:44;-3.60;99.90
13850;DHT22;6995;52.618;13.488;2024-01-11T05:26:09;-3.60;1.00
13850;DHT22;6995;52.618;13.488;2024-01-11T05:28:35;-3.60;99.90
13850;DHT22;6995;52.618;13.488;2024-01-11T05:31:01;-3.60;99.90
13850;DHT22;6995;52.618;13.488;2024-01-11T05:33:27;-3.60;99.90
13850;DHT22;6995;52.618;13.488;2024-01-11T05:35:53;-3.50;99.90
13850;DHT22;6995;52.618;13.488;2024-01-11T05:38:19;-3.40;99.90
13850;DHT22;6995;52.618;13.488;2024-01-11T05:40:45;-3.50;99.90
13850;DHT22;6995;52.618;13.488;2024-01-11T05:43:11;-3.50;99.90
13850;DHT22;6995;52.618;13.488;2024-01-11T05:45:36;-3.40;1.00
13850;DHT22;6995;52.618;13.488;2024-01-11T05:48:02;-3.40;99.90
13850;DHT22;6995;52.618;13.488;2024-01-11T05:50:28;-3.40;99.90
13850;DHT22;6995;52.618;13.488;2024-01-11T05:52:53;-3.50;1.00
13850;DHT22;6995;52.618;13.488;2024-01-11T05:55:20;-3.50;1.00
13850;DHT22;6995;52.618;13.488;2024-01-11T05:57:46;-3.50;1.00
13850;DHT22;6995;52.618;13.488;2024-01-11T06:00:12;-3.40;1.00
13850;DHT22;6995;52.618;13.488;2024-01-11T06:02:37;-3.40;1.00
13850;DHT22;6995;52.618;13.488;2024-01-11T06:05:03;-3.40;1.00
13850;DHT22;6995;52.618;13.488;2024-01-11T06:07:29;-3.40;1.00
13850;DHT22;6995;52.618;13.488;2024-01-11T06:09:54;-3.30;1.00
13850;DHT22;6995;52.618;13.488;2024-01-11T06:12:20;-3.30;1.00
13850;DHT22;6995;52.618;13.488;2024-01-11T06:14:46;-3.20;1.00
13850;DHT22;6995;52.618;13.488;2024-01-11T06:17:12;-3.30;1.00
13850;DHT22;6995;52.618;13.488;2024-01-11T06:19:38;-3.20;1.00
13850;DHT22;6995;52.618;13.488;2024-01-11T06:22:04;-3.30;1.00
13850;DHT22;6995;52.618;13.488;2024-01-11T06:24:31;-3.30;1.00
13850;DHT22;6995;52.618;13.488;2024-01-11T06:26:56;-3.20;1.00
13850;DHT22;6995;52.618;13.488;2024-01-11T06:29:22;-3.20;1.00
13850;DHT22;6995;52.618;13.488;2024-01-11T06:31:48;-3.10;1.00
13850;DHT22;6995;52.618;13.488;2024-01-11T06:34:13;-3.00;1.00
13850;DHT22;6995;52.618;13.488;2024-01-11T06:36:39;-3.00;1.00
13850;DHT22;6995;52.618;13.488;2024-01-11T06:39:04;-3.00;1.00
13850;DHT22;6995;52.618;13.488;2024-01-11T06:41:30;-2.90;1.00
13850;DHT22;6995;52.618;13.488;2024-01-11T06:43:56;-3.00;99.90
13850;DHT22;6995;52.618;13.488;2024-01-11T06:46:22;-2.90;99.90
13850;DHT22;6995;52.618;13.488;2024-01-11T06:48:48;-2.90;1.00
13850;DHT22;6995;52.618;13.488;2024-01-11T06:51:21;-2.90;99.90
13850;DHT22;6995;52.618;13.488;2024-01-11T06:53:47;-2.90;99.90
13850;DHT22;6995;52.618;13.488;2024-01-11T06:56:17;-2.90;99.90
13850;DHT22;6995;52.618;13.488;2024-01-11T06:58:44;-2.90;1.00
13850;DHT22;6995;52.618;13.488;2024-01-11T07:01:11;-2.80;1.00
13850;DHT22;6995;52.618;13.488;2024-01-11T07:03:37;-2.80;1.00
13850;DHT22;6995;52.618;13.488;2024-01-11T07:06:03;-2.70;1.00
13850;DHT22;6995;52.618;13.488;2024-01-11T07:08:29;-2.80;1.00
13850;DHT22;6995;52.618;13.488;2024-01-11T07:10:55;-2.80;1.00
13850;DHT22;6995;52.618;13.488;2024-01-11T07:13:20;-2.70;1.00
13850;DHT22;6995;52.618;13.488;2024-01-11T07:15:46;-2.70;1.00
13850;DHT22;6995;52.618;13.488;2024-01-11T07:18:13;-2.70;1.00
13850;DHT22;6995;52.618;13.488;2024-01-11T07:20:39;-2.70;1.00
13850;DHT22;6995;52.618;13.488;2024-01-11T07:23:04;-2.70;1.00
13850;DHT22;6995;52.618;13.488;2024-01-11T07:25:30;-2.70;1.00
13850;DHT22;6995;52.618;13.488;2024-01-11T07:27:56;-2.60;1.00
13850;DHT22;6995;52.618;13.488;2024-01-11T07:30:21;-2.60;1.00
13850;DHT22;6995;52.618;13.488;2024-01-11T07:32:47;-2.50;1.00
13850;DHT22;6995;52.618;13.488;2024-01-11T07:35:13;-2.50;1.00
13850;DHT22;6995;52.618;13.488;2024-01-11T07:37:39;-2.50;1.00
13850;DHT22;6995;52.618;13.488;2024-01-11T07:40:06;-2.40;1.00
13850;DHT22;6995;52.618;13.488;2024-01-11T07:42:37;-2.40;1.00
13850;DHT22;6995;52.618;13.488;2024-01-11T07:45:03;-2.40;1.00
13850;DHT22;6995;52.618;13.488;2024-01-11T07:47:30;-2.30;1.00
13850;DHT22;6995;52.618;13.488;2024-01-11T07:49:56;-2.30;1.00
13850;DHT22;6995;52.618;13.488;2024-01-11T07:52:22;-2.30;1.00
13850;DHT22;6995;52.618;13.488;2024-01-11T07:54:50;-2.20;1.00
13850;DHT22;6995;52.618;13.488;2024-01-11T07:57:16;-2.20;1.00
13850;DHT22;6995;52.618;13.488;2024-01-11T07:59:41;-2.20;1.00
13850;DHT22;6995;52.618;13.488;2024-01-11T08:02:07;-2.20;1.00
13850;DHT22;6995;52.618;13.488;2024-01-11T08:04:33;-2.20;1.00
13850;DHT22;6995;52.618;13.488;2024-01-11T08:06:58;-2.20;1.00
13850;DHT22;6995;52.618;13.488;2024-01-11T08:09:28;-2.20;1.00
13850;DHT22;6995;52.618;13.488;2024-01-11T08:11:54;-2.10;1.00
13850;DHT22;6995;52.618;13.488;2024-01-11T08:14:20;-2.10;1.00
13850;DHT22;6995;52.618;13.488;2024-01-11T08:16:46;-2.00;1.00
13850;DHT22;6995;52.618;13.488;2024-01-11T08:19:12;-2.10;1.00
13850;DHT22;6995;52.618;13.488;2024-01-11T08:21:40;-2.10;1.00
13850;DHT22;6995;52.618;13.488;2024-01-11T08:24:09;-2.10;1.00
13850;DHT22;6995;52.618;13.488;2024-01-11T08:26:34;-2.10;1.00
13850;DHT22;6995;52.618;13.488;2024-01-11T08:29:00;-2.00;1.00
13850;DHT22;6995;52.618;13.488;2024-01-11T08:31:27;-2.00;1.00
13850;DHT22;6995;52.618;13.488;2024-01-11T08:33:53;-1.90;1.00
13850;DHT22;6995;52.618;13.488;2024-01-11T08:36:19;-1.90;1.00
13850;DHT22;6995;52.618;13.488;2024-01-11T08:38:45;-1.80;1.00
13850;DHT22;6995;52.618;13.488;2024-01-11T08:41:11;-1.80;1.00
13850;DHT22;6995;52.618;13.488;2024-01-11T08:43:36;-1.80;1.00
13850;DHT22;6995;52.618;13.488;2024-01-11T08:46:02;-1.70;1.00
13850;DHT22;6995;52.618;13.488;2024-01-11T08:48:28;-1.60;1.00
13850;DHT22;6995;52.618;13.488;2024-01-11T08:50:54;-1.50;1.00
13850;DHT22;6995;52.618;13.488;2024-01-11T08:53:20;-1.50;1.00
13850;DHT22;6995;52.618;13.488;2024-01-11T08:55:45;-1.50;1.00
13850;DHT22;6995;52.618;13.488;2024-01-11T08:58:11;-1.40;1.00
13850;DHT22;6995;52.618;13.488;2024-01-11T09:00:37;-1.30;1.00
13850;DHT22;6995;52.618;13.488;2024-01-11T09:03:03;-1.20;1.00
13850;DHT22;6995;52.618;13.488;2024-01-11T09:05:29;-1.00;1.00
13850;DHT22;6995;52.618;13.488;2024-01-11T09:07:55;-1.10;1.00
13850;DHT22;6995;52.618;13.488;2024-01-11T09:10:21;-1.00;1.00
13850;DHT22;6995;52.618;13.488;2024-01-11T09:12:46;-1.00;1.00
13850;DHT22;6995;52.618;13.488;2024-01-11T09:15:12;-1.00;1.00
13850;DHT22;6995;52.618;13.488;2024-01-11T09:17:38;-1.00;1.00
13850;DHT22;6995;52.618;13.488;2024-01-11T09:20:04;-1.00;1.00
13850;DHT22;6995;52.618;13.488;2024-01-11T09:22:34;-0.90;1.00
13850;DHT22;6995;52.618;13.488;2024-01-11T09:25:03;-0.90;1.00
13850;DHT22;6995;52.618;13.488;2024-01-11T09:27:28;-0.80;1.00
13850;DHT22;6995;52.618;13.488;2024-01-11T09:30:05;-0.80;1.00
13850;DHT22;6995;52.618;13.488;2024-01-11T09:32:34;-0.70;1.00
13850;DHT22;6995;52.618;13.488;2024-01-11T09:35:01;-0.60;1.00
13850;DHT22;6995;52.618;13.488;2024-01-11T09:37:26;-0.60;1.00
13850;DHT22;6995;52.618;13.488;2024-01-11T09:39:52;-0.60;1.00
13850;DHT22;6995;52.618;13.488;2024-01-11T09:42:18;-0.60;1.00
13850;DHT22;6995;52.618;13.488;2024-01-11T09:44:52;-0.60;1.00
13850;DHT22;6995;52.618;13.488;2024-01-11T09:47:21;-0.60;1.00
13850;DHT22;6995;52.618;13.488;2024-01-11T09:49:48;-0.60;1.00
13850;DHT22;6995;52.618;13.488;2024-01-11T09:52:16;-0.60;1.00
13850;DHT22;6995;52.618;13.488;2024-01-11T09:54:45;-0.60;14.80
13850;DHT22;6995;52.618;13.488;2024-01-11T09:57:10;-0.50;36.00
13850;DHT22;6995;52.618;13.488;2024-01-11T09:59:37;-0.50;10.20
13850;DHT22;6995;52.618;13.488;2024-01-11T10:02:03;-0.50;14.70
13850;DHT22;6995;52.618;13.488;2024-01-11T10:04:29;-0.30;99.90
13850;DHT22;6995;52.618;13.488;2024-01-11T10:06:55;-0.30;99.90
13850;DHT22;6995;52.618;13.488;2024-01-11T10:09:22;-0.30;1.00
13850;DHT22;6995;52.618;13.488;2024-01-11T10:11:48;-0.30;1.00
13850;DHT22;6995;52.618;13.488;2024-01-11T10:14:14;-0.30;1.00
13850;DHT22;6995;52.618;13.488;2024-01-11T10:16:42;-0.30;1.00
13850;DHT22;6995;52.618;13.488;2024-01-11T10:19:09;-0.30;1.00
13850;DHT22;6995;52.618;13.488;2024-01-11T10:21:38;-0.30;1.00
13850;DHT22;6995;52.618;13.488;2024-01-11T10:24:07;-0.40;1.00
13850;DHT22;6995;52.618;13.488;2024-01-11T10:26:32;-0.40;1.00
13850;DHT22;6995;52.618;13.488;2024-01-11T10:29:01;-0.40;1.00
13850;DHT22;6995;52.618;13.488;2024-01-11T10:31:30;-0.30;37.00
13850;DHT22;6995;52.618;13.488;2024-01-11T10:33:57;-0.30;32.00
13850;DHT22;6995;52.618;13.488;2024-01-11T10:36:23;-0.40;18.90
13850;DHT22;6995;52.618;13.488;2024-01-11T10:38:49;-0.20;63.20
13850;DHT22;6995;52.618;13.488;2024-01-11T10:41:18;-0.30;1.00
13850;DHT22;6995;52.618;13.488;2024-01-11T10:43:46;-0.30;1.00
13850;DHT22;6995;52.618;13.488;2024-01-11T10:46:14;-0.20;1.00
13850;DHT22;6995;52.618;13.488;2024-01-11T10:48:43;-0.30;7.00
13850;DHT22;6995;52.618;13.488;2024-01-11T10:51:12;-0.20;30.80
13850;DHT22;6995;52.618;13.488;2024-01-11T10:53:48;-0.20;23.10
13850;DHT22;6995;52.618;13.488;2024-01-11T10:56:16;-0.10;11.70
13850;DHT22;6995;52.618;13.488;2024-01-11T10:58:43;-0.20;1.00
13850;DHT22;6995;52.618;13.488;2024-01-11T11:01:11;-0.20;48.40
13850;DHT22;6995;52.618;13.488;2024-01-11T11:03:38;-0.30;84.70
13850;DHT22;6995;52.618;13.488;2024-01-11T11:06:05;-0.30;99.90
13850;DHT22;6995;52.618;13.488;2024-01-11T11:08:32;-0.30;99.90
13850;DHT22;6995;52.618;13.488;2024-01-11T11:11:00;-0.20;99.90
13850;DHT22;6995;52.618;13.488;2024-01-11T11:13:27;-0.10;99.90
13850;DHT22;6995;52.618;13.488;2024-01-11T11:15:53;-0.20;99.90
13850;DHT22;6995;52.618;13.488;2024-01-11T11:18:20;-0.30;99.90
13850;DHT22;6995;52.618;13.488;2024-01-11T11:20:47;-0.20;99.90
13850;DHT22;6995;52.618;13.488;2024-01-11T11:23:15;-0.10;99.90
13850;DHT22;6995;52.618;13.488;2024-01-11T11:25:46;-0.10;99.90
13850;DHT22;6995;52.618;13.488;2024-01-11T11:28:12;0.00;99.90
13850;DHT22;6995;52.618;13.488;2024-01-11T11:30:41;-0.10;99.90
13850;DHT22;6995;52.618;13.488;2024-01-11T11:33:11;0.10;99.90
13850;DHT22;6995;52.618;13.488;2024-01-11T11:35:37;0.00;99.90
13850;DHT22;6995;52.618;13.488;2024-01-11T11:38:03;0.10;99.90
13850;DHT22;6995;52.618;13.488;2024-01-11T11:40:36;0.10;99.90
13850;DHT22;6995;52.618;13.488;2024-01-11T11:43:07;0.00;99.90
13850;DHT22;6995;52.618;13.488;2024-01-11T11:45:33;0.00;99.90
13850;DHT22;6995;52.618;13.488;2024-01-11T11:47:59;0.10;99.90
13850;DHT22;6995;52.618;13.488;2024-01-11T11:50:25;0.10;99.90
13850;DHT22;6995;52.618;13.488;2024-01-11T11:52:59;0.20;99.90
13850;DHT22;6995;52.618;13.488;2024-01-11T11:55:25;0.20;99.90
13850;DHT22;6995;52.618;13.488;2024-01-11T11:57:52;0.10;99.90
13850;DHT22;6995;52.618;13.488;2024-01-11T12:00:21;0.10;99.90
13850;DHT22;6995;52.618;13.488;2024-01-11T12:02:53;0.10;99.90
13850;DHT22;6995;52.618;13.488;2024-01-11T12:05:22;0.10;99.90
13850;DHT22;6995;52.618;13.488;2024-01-11T12:07:47;0.20;99.90
13850;DHT22;6995;52.618;13.488;2024-01-11T12:10:14;0.20;99.90
13850;DHT22;6995;52.618;13.488;2024-01-11T12:12:40;0.30;99.90
13850;DHT22;6995;52.618;13.488;2024-01-11T12:15:06;0.30;99.90
13850;DHT22;6995;52.618;13.488;2024-01-11T12:17:33;0.20;99.90
13850;DHT22;6995;52.618;13.488;2024-01-11T12:19:58;0.20;99.90
13850;DHT22;6995;52.618;13.488;2024-01-11T12:22:24;0.30;99.90
13850;DHT22;6995;52.618;13.488;2024-01-11T12:24:50;0.30;99.90
13850;DHT22;6995;52.618;13.488;2024-01-11T12:27:16;0.30;99.90
13850;DHT22;6995;52.618;13.488;2024-01-11T12:29:42;0.40;99.90
13850;DHT22;6995;52.618;13.488;2024-01-11T12:32:08;0.40;91.80
13850;DHT22;6995;52.618;13.488;2024-01-11T12:34:36;0.40;38.60
13850;DHT22;6995;52.618;13.488;2024-01-11T12:37:02;0.40;39.50
13850;DHT22;6995;52.618;13.488;2024-01-11T12:39:31;0.50;62.70
13850;DHT22;6995;52.618;13.488;2024-01-11T12:41:56;0.50;11.80
13850;DHT22;6995;52.618;13.488;2024-01-11T12:44:23;0.60;1.00
13850;DHT22;6995;52.618;13.488;2024-01-11T12:46:51;0.70;1.00
13850;DHT22;6995;52.618;13.488;2024-01-11T12:49:18;0.80;1.00
13850;DHT22;6995;52.618;13.488;2024-01-11T12:51:43;0.80;1.00
13850;DHT22;6995;52.618;13.488;2024-01-11T12:54:12;0.80;1.00
13850;DHT22;6995;52.618;13.488;2024-01-11T12:56:41;0.80;1.00
13850;DHT22;6995;52.618;13.488;2024-01-11T12:59:08;0.80;1.00
13850;DHT22;6995;52.618;13.488;2024-01-11T13:01:36;0.80;1.00
13850;DHT22;6995;52.618;13.488;2024-01-11T13:04:02;0.80;1.00
13850;DHT22;6995;52.618;13.488;2024-01-11T13:06:30;0.80;1.00
13850;DHT22;6995;52.618;13.488;2024-01-11T13:08:56;0.90;1.00
13850;DHT22;6995;52.618;13.488;2024-01-11T13:11:22;0.80;1.00
13850;DHT22;6995;52.618;13.488;2024-01-11T13:13:50;0.80;1.00
13850;DHT22;6995;52.618;13.488;2024-01-11T13:16:17;0.70;1.00
13850;DHT22;6995;52.618;13.488;2024-01-11T13:18:44;0.80;1.00
13850;DHT22;6995;52.618;13.488;2024-01-11T13:21:10;0.80;1.00
13850;DHT22;6995;52.618;13.488;2024-01-11T13:23:39;0.80;1.00
13850;DHT22;6995;52.618;13.488;2024-01-11T13:26:06;0.80;1.00
13850;DHT22;6995;52.618;13.488;2024-01-11T13:28:32;0.80;1.00
13850;DHT22;6995;52.618;13.488;2024-01-11T13:30:59;0.70;1.00
13850;DHT22;6995;52.618;13.488;2024-01-11T13:33:25;0.60;1.00
13850;DHT22;6995;52.618;13.488;2024-01-11T13:35:50;0.60;1.00
13850;DHT22;6995;52.618;13.488;2024-01-11T13:38:16;0.60;1.00
13850;DHT22;6995;52.618;13.488;2024-01-11T13:40:42;0.50;1.00
13850;DHT22;6995;52.618;13.488;2024-01-11T13:43:09;0.60;7.80
13850;DHT22;6995;52.618;13.488;2024-01-11T13:45:35;0.60;1.00
13850;DHT22;6995;52.618;13.488;2024-01-11T13:48:03;0.50;19.80
13850;DHT22;6995;52.618;13.488;2024-01-11T13:50:28;0.50;15.40
13850;DHT22;6995;52.618;13.488;2024-01-11T13:52:54;0.50;20.70
13850;DHT22;6995;52.618;13.488;2024-01-11T13:55:20;0.40;48.10
13850;DHT22;6995;52.618;13.488;2024-01-11T13:57:47;0.40;99.90
13850;DHT22;6995;52.618;13.488;2024-01-11T14:00:13;0.40;99.90
13850;DHT22;6995;52.618;13.488;2024-01-11T14:02:40;0.50;99.90
13850;DHT22;6995;52.618;13.488;2024-01-11T14:05:07;0.50;99.90
13850;DHT22;6995;52.618;13.488;2024-01-11T14:07:37;0.40;99.90
13850;DHT22;6995;52.618;13.488;2024-01-11T14:10:05;0.30;99.90
13850;DHT22;6995;52.618;13.488;2024-01-11T14:12:32;0.40;99.90
13850;DHT22;6995;52.618;13.488;2024-01-11T14:14:57;0.40;99.90
13850;DHT22;6995;52.618;13.488;2024-01-11T14:17:23;0.40;99.90
13850;DHT22;6995;52.618;13.488;2024-01-11T14:19:48;0.40;99.90
13850;DHT22;6995;52.618;13.488;2024-01-11T14:22:14;0.40;99.90
13850;DHT22;6995;52.618;13.488;2024-01-11T14:24:40;0.30;99.90
13850;DHT22;6995;52.618;13.488;2024-01-11T14:27:06;0.30;99.90
13850;DHT22;6995;52.618;13.488;2024-01-11T14:29:31;0.30;99.90
13850;DHT22;6995;52.618;13.488;2024-01-11T14:31:57;0.30;99.90
13850;DHT22;6995;52.618;13.488;2024-01-11T14:34:23;0.30;99.90
13850;DHT22;6995;52.618;13.488;2024-01-11T14:36:49;0.30;99.90
13850;DHT22;6995;52.618;13.488;2024-01-11T14:39:15;0.30;99.90
13850;DHT22;6995;52.618;13.488;2024-01-11T14:41:40;0.40;99.90
13850;DHT22;6995;52.618;13.488;2024-01-11T14:44:06;0.30;99.90
13850;DHT22;6995;52.618;13.488;2024-01-11T14:46:32;0.30;99.90
13850;DHT22;6995;52.618;13.488;2024-01-11T14:48:58;0.30;99.90
13850;DHT22;6995;52.618;13.488;2024-01-11T14:51:25;0.30;99.90
13850;DHT22;6995;52.618;13.488;2024-01-11T14:53:54;0.30;99.90
13850;DHT22;6995;52.618;13.488;2024-01-11T14:56:20;0.30;99.90
13850;DHT22;6995;52.618;13.488;2024-01-11T14:58:52;0.30;99.90
13850;DHT22;6995;52.618;13.488;2024-01-11T15:01:21;0.40;99.90
13850;DHT22;6995;52.618;13.488;2024-01-11T15:03:46;0.40;99.90
13850;DHT22;6995;52.618;13.488;2024-01-11T15:06:12;0.30;99.90
13850;DHT22;6995;52.618;13.488;2024-01-11T15:08:38;0.30;99.90
13850;DHT22;6995;52.618;13.488;2024-01-11T15:11:03;0.40;99.90
13850;DHT22;6995;52.618;13.488;2024-01-11T15:13:29;0.40;99.90
13850;DHT22;6995;52.618;13.488;2024-01-11T15:15:56;0.40;99.90
13850;DHT22;6995;52.618;13.488;2024-01-11T15:18:22;0.40;99.90
13850;DHT22;6995;52.618;13.488;2024-01-11T15:20:47;0.30;99.90
13850;DHT22;6995;52.618;13.488;2024-01-11T15:23:13;0.30;99.90
13850;DHT22;6995;52.618;13.488;2024-01-11T15:25:39;0.30;99.90
13850;DHT22;6995;52.618;13.488;2024-01-11T15:28:04;0.30;99.90
13850;DHT22;6995;52.618;13.488;2024-01-11T15:30:30;0.40;99.90
13850;DHT22;6995;52.618;13.488;2024-01-11T15:32:55;0.40;99.90
13850;DHT22;6995;52.618;13.488;2024-01-11T15:35:21;0.30;99.90
13850;DHT22;6995;52.618;13.488;2024-01-11T15:37:47;0.40;99.90